createdAt,value
2019-01-06T00:00:14.754Z,1.60
2019-01-06T00:05:31.987Z,1.00
2019-01-06T00:10:53.891Z,0.87
2019-01-06T00:16:25.327Z,1.13
2019-01-06T00:21:57.650Z,1.50
2019-01-06T00:27:19.238Z,1.30
2019-01-06T00:32:41.155Z,1.10
2019-01-06T00:38:02.881Z,1.77
2019-01-06T00:43:24.585Z,1.20
2019-01-06T00:48:46.344Z,2.20
2019-01-06T00:54:12.536Z,2.13
2019-01-06T00:59:34.321Z,0.87
2019-01-06T01:04:56.005Z,1.70
2019-01-06T01:10:19.133Z,5.73
2019-01-06T01:15:55.729Z,1.37
2019-01-06T01:21:34.072Z,2.23
2019-01-06T01:27:09.322Z,1.80
2019-01-06T01:32:35.643Z,0.70
2019-01-06T01:38:06.624Z,1.43
2019-01-06T01:43:28.750Z,4.33
2019-01-06T01:49:04.042Z,1.60
2019-01-06T01:54:26.039Z,1.10
2019-01-06T01:59:58.188Z,1.43
2019-01-06T02:05:30.205Z,1.40
2019-01-06T02:10:56.245Z,1.03
2019-01-06T02:16:18.081Z,1.17
2019-01-06T02:21:40.104Z,1.73
2019-01-06T02:27:02.241Z,1.77
2019-01-06T02:32:20.482Z,0.93
2019-01-06T02:37:46.681Z,3.03
2019-01-06T02:43:22.833Z,1.83
2019-01-06T02:48:46.376Z,0.80
2019-01-06T02:54:08.114Z,1.83
2019-01-06T02:59:29.899Z,2.73
2019-01-06T03:05:02.093Z,1.00
2019-01-06T03:10:26.606Z,2.30
2019-01-06T03:15:57.395Z,2.47
2019-01-06T03:21:32.537Z,2.40
2019-01-06T03:26:55.326Z,1.43
2019-01-06T03:32:10.870Z,0.77
2019-01-06T03:37:32.978Z,3.40
2019-01-06T03:42:45.929Z,1.13
2019-01-06T03:48:18.356Z,2.17
2019-01-06T03:53:40.423Z,8.60
2019-01-06T03:59:06.203Z,1.93
2019-01-06T04:04:38.274Z,3.13
2019-01-06T04:10:00.429Z,2.30
2019-01-06T04:15:32.757Z,1.23
2019-01-06T04:20:54.713Z,3.80
2019-01-06T04:26:17.881Z,1.33
2019-01-06T04:31:40.000Z,0.90
2019-01-06T04:37:06.355Z,0.70
2019-01-06T04:42:36.496Z,0.83
2019-01-06T04:47:51.172Z,4.87
2019-01-06T04:53:13.396Z,1.50
2019-01-06T04:58:35.260Z,3.20
2019-01-06T05:03:57.372Z,1.60
2019-01-06T05:09:35.892Z,3.50
2019-01-06T05:15:14.526Z,2.27
2019-01-06T05:20:36.479Z,2.43
2019-01-06T05:26:01.245Z,3.47
2019-01-06T05:31:36.493Z,2.17
2019-01-06T05:36:51.887Z,2.53
2019-01-06T05:42:10.905Z,1.27
2019-01-06T05:47:32.676Z,3.60
2019-01-06T05:52:54.484Z,2.07
2019-01-06T05:58:12.396Z,5.43
2019-01-06T06:03:31.082Z,2.43
2019-01-06T06:08:56.796Z,2.50
2019-01-06T06:14:18.480Z,3.43
2019-01-06T06:19:47.698Z,3.10
2019-01-06T06:25:09.340Z,2.60
2019-01-06T06:30:32.503Z,3.40
2019-01-06T06:36:07.557Z,4.87
2019-01-06T06:41:30.472Z,4.30
2019-01-06T06:46:53.407Z,5.27
2019-01-06T06:52:14.734Z,4.53
2019-01-06T06:58:22.929Z,5.07
2019-01-06T07:04:04.433Z,2.47
2019-01-06T07:09:42.571Z,4.37
2019-01-06T07:15:09.654Z,3.73
2019-01-06T07:20:50.174Z,4.97
2019-01-06T07:26:13.169Z,3.70
2019-01-06T07:31:42.165Z,5.13
2019-01-06T07:37:05.120Z,5.17
2019-01-06T07:42:26.470Z,4.80
2019-01-06T07:47:57.071Z,4.80
2019-01-06T07:53:32.273Z,4.07
2019-01-06T07:58:46.726Z,4.27
2019-01-06T08:04:07.085Z,5.37
2019-01-06T08:09:28.725Z,5.73
2019-01-06T08:14:51.489Z,5.17
2019-01-06T08:20:13.200Z,7.20
2019-01-06T08:25:35.957Z,5.37
2019-01-06T08:30:57.577Z,6.03
2019-01-06T08:36:25.393Z,6.67
2019-01-06T08:41:46.991Z,7.83
2019-01-06T08:47:08.591Z,6.27
2019-01-06T08:52:31.412Z,5.00
2019-01-06T08:57:57.187Z,4.40
2019-01-06T09:03:19.019Z,6.77
2019-01-06T09:08:44.686Z,6.50
2019-01-06T09:14:16.894Z,5.60
2019-01-06T09:19:51.199Z,6.23
2019-01-06T09:25:15.243Z,5.47
2019-01-06T09:30:48.458Z,4.67
2019-01-06T09:36:11.314Z,5.20
2019-01-06T09:41:34.054Z,5.73
2019-01-06T09:47:11.998Z,5.63
2019-01-06T09:52:41.188Z,4.27
2019-01-06T09:58:21.631Z,4.53
2019-01-06T10:03:42.992Z,4.20
2019-01-06T10:09:14.734Z,5.80
2019-01-06T10:14:49.339Z,3.90
2019-01-06T10:20:30.487Z,6.00
2019-01-06T10:25:52.185Z,5.33
2019-01-06T10:31:27.229Z,5.13
2019-01-06T10:37:02.415Z,3.23
2019-01-06T10:42:24.014Z,4.80
2019-01-06T10:47:53.540Z,3.63
2019-01-06T10:53:25.423Z,4.37
2019-01-06T10:58:42.234Z,6.47
2019-01-06T11:04:03.117Z,3.27
2019-01-06T11:09:17.138Z,3.87
2019-01-06T11:14:52.217Z,4.50
2019-01-06T11:20:20.844Z,3.77
2019-01-06T11:25:42.607Z,3.90
2019-01-06T11:31:05.379Z,3.33
2019-01-06T11:36:26.928Z,3.57
2019-01-06T11:41:49.756Z,2.07
2019-01-06T11:47:10.976Z,2.53
2019-01-06T11:52:32.754Z,1.70
2019-01-06T11:57:54.600Z,2.03
2019-01-06T12:03:08.478Z,2.77
2019-01-06T12:08:29.037Z,3.17
2019-01-06T12:13:43.934Z,3.47
2019-01-06T12:19:14.266Z,1.40
2019-01-06T12:24:41.487Z,2.73
2019-01-06T12:30:05.085Z,1.60
2019-01-06T12:35:31.170Z,5.77
2019-01-06T12:40:59.787Z,2.20
2019-01-06T12:46:38.599Z,5.93
2019-01-06T12:52:03.119Z,3.77
2019-01-06T12:57:44.185Z,2.17
2019-01-06T13:02:58.557Z,3.03
2019-01-06T13:08:23.814Z,2.87
2019-01-06T13:13:46.559Z,2.33
2019-01-06T13:19:25.700Z,2.27
2019-01-06T13:24:47.374Z,1.30
2019-01-06T13:30:12.144Z,2.83
2019-01-06T13:35:34.014Z,2.20
2019-01-06T13:41:02.851Z,2.75
2019-01-06T13:46:23.105Z,2.30
2019-01-06T13:51:44.828Z,4.00
2019-01-06T13:57:27.269Z,2.77
2019-01-06T14:03:02.239Z,2.60
2019-01-06T14:08:25.132Z,3.70
2019-01-06T14:13:46.972Z,2.20
2019-01-06T14:19:12.676Z,2.73
2019-01-06T14:24:38.333Z,4.07
2019-01-06T14:29:54.669Z,2.70
2019-01-06T14:35:30.560Z,2.77
2019-01-06T14:41:06.910Z,1.97
2019-01-06T14:46:41.759Z,3.27
2019-01-06T14:52:13.062Z,4.17
2019-01-06T14:57:37.840Z,3.27
2019-01-06T15:02:58.676Z,3.43
2019-01-06T15:08:23.503Z,1.97
2019-01-06T15:13:44.747Z,3.00
2019-01-06T15:19:09.558Z,4.50
2019-01-06T15:24:54.615Z,3.67
2019-01-06T15:30:23.452Z,5.03
2019-01-06T15:35:40.868Z,5.83
2019-01-06T15:41:00.342Z,7.37
2019-01-06T15:46:24.809Z,3.63
2019-01-06T15:51:46.428Z,3.73
2019-01-06T15:57:21.593Z,4.20
2019-01-06T16:02:47.687Z,6.20
2019-01-06T16:08:09.574Z,3.00
2019-01-06T16:13:34.017Z,4.23
2019-01-06T16:18:46.400Z,7.20
2019-01-06T16:24:09.243Z,6.37
2019-01-06T16:29:31.276Z,5.93
2019-01-06T16:34:59.907Z,4.40
2019-01-06T16:40:21.546Z,6.37
2019-01-06T16:45:43.272Z,6.47
2019-01-06T16:51:09.458Z,4.27
2019-01-06T16:56:31.044Z,4.13
2019-01-06T17:01:57.845Z,3.30
2019-01-06T17:07:12.914Z,5.97
2019-01-06T17:12:44.750Z,5.67
2019-01-06T17:18:13.522Z,4.67
2019-01-06T17:23:36.294Z,6.80
2019-01-06T17:29:10.212Z,7.43
2019-01-06T17:34:42.413Z,6.93
2019-01-06T17:40:05.812Z,5.47
2019-01-06T17:45:34.725Z,6.03
2019-01-06T17:50:56.156Z,5.73
2019-01-06T17:56:20.598Z,8.27
2019-01-06T18:01:42.371Z,9.13
2019-01-06T18:06:57.058Z,12.57
2019-01-06T18:12:14.720Z,11.47
2019-01-06T18:17:38.203Z,12.93
2019-01-06T18:23:10.487Z,10.43
2019-01-06T18:28:51.935Z,10.90
2019-01-06T18:34:17.616Z,14.23
2019-01-06T18:39:46.325Z,13.30
2019-01-06T18:45:09.490Z,11.30
2019-01-06T18:50:31.269Z,12.77
2019-01-06T18:55:59.871Z,10.53
2019-01-06T19:01:23.657Z,13.30
2019-01-06T19:06:45.539Z,11.07
2019-01-06T19:12:04.278Z,11.63
2019-01-06T19:17:40.826Z,13.67
2019-01-06T19:23:19.955Z,12.17
2019-01-06T19:28:41.484Z,14.67
2019-01-06T19:33:58.943Z,14.53
2019-01-06T19:39:20.713Z,13.23
2019-01-06T19:44:45.981Z,12.23
2019-01-06T19:50:07.048Z,10.57
2019-01-06T19:55:27.022Z,11.95
2019-01-06T20:00:43.717Z,12.87
2019-01-06T20:06:10.673Z,15.27
2019-01-06T20:11:32.366Z,14.87
2019-01-06T20:16:50.280Z,14.03
2019-01-06T20:22:11.765Z,14.07
2019-01-06T20:27:40.469Z,15.07
2019-01-06T20:33:21.477Z,12.17
2019-01-06T20:38:36.594Z,10.67
2019-01-06T20:44:04.974Z,13.70
2019-01-06T20:49:26.749Z,11.90
2019-01-06T20:54:48.172Z,10.07
2019-01-06T21:00:09.670Z,12.33
2019-01-06T21:05:44.782Z,11.67
2019-01-06T21:11:06.478Z,14.93
2019-01-06T21:16:29.351Z,13.17
2019-01-06T21:21:44.566Z,14.43
2019-01-06T21:27:06.430Z,13.23
2019-01-06T21:32:25.226Z,13.10
2019-01-06T21:37:54.362Z,13.73
2019-01-06T21:43:32.529Z,16.77
2019-01-06T21:49:07.452Z,17.30
2019-01-06T21:54:36.308Z,16.60
2019-01-06T22:00:11.204Z,16.57
2019-01-06T22:05:49.339Z,20.88
2019-01-06T22:11:30.040Z,18.63
2019-01-06T22:16:46.991Z,19.73
2019-01-06T22:22:02.966Z,22.50
2019-01-06T22:27:44.080Z,20.37
2019-01-06T22:33:05.570Z,20.37
2019-01-06T22:38:26.985Z,19.80
2019-01-06T22:43:58.995Z,19.50
2019-01-06T22:49:25.889Z,17.50
2019-01-06T22:54:47.163Z,18.37
2019-01-06T23:00:08.067Z,15.77
2019-01-06T23:05:21.280Z,16.97
2019-01-06T23:10:42.667Z,17.40
2019-01-06T23:15:56.733Z,17.13
2019-01-06T23:21:34.121Z,19.90
2019-01-06T23:27:03.096Z,22.00
2019-01-06T23:32:31.981Z,20.40
2019-01-06T23:38:01.210Z,25.03
2019-01-06T23:43:16.486Z,21.07
2019-01-06T23:48:57.849Z,18.97
2019-01-06T23:54:35.746Z,21.00
